Time;durP1;ratioP1;P1;durP2;ratioP2;P2;SDS_P1;SDS_P2;PMS_P1;PMS_P2;Temp;Humidity;BMP_temperature;BMP_pressure;BME280_temperature;BME280_humidity;BME280_pressure;Samples;Min_cycle;Max_cycle;Signal;HPM_P1;HPM_P2
2021/04/26 00:02:15;;;;;;;1.60;1.50;;;17.00;81.70;;;;;;5164229;27;20455;-38
2021/04/26 00:04:46;;;;;;;1.30;1.20;;;16.80;83.90;;;;;;5163507;27;20452;-39
2021/04/26 00:07:16;;;;;;;3.00;2.73;;;16.70;84.50;;;;;;5163044;27;20601;-40
2021/04/26 00:09:47;;;;;;;2.90;1.97;;;16.70;84.50;;;;;;5163021;27;20544;-40
2021/04/26 00:12:17;;;;;;;3.60;1.63;;;16.60;86.00;;;;;;5164907;27;20442;-38
2021/04/26 00:14:47;;;;;;;1.40;1.30;;;16.50;88.00;;;;;;5164679;27;20469;-39
2021/04/26 00:17:17;;;;;;;3.20;1.50;;;16.40;90.10;;;;;;5167988;27;20504;-39
2021/04/26 00:19:47;;;;;;;1.67;1.53;;;16.40;90.40;;;;;;5168357;27;20480;-40
2021/04/26 00:22:17;;;;;;;1.50;1.40;;;16.30;90.90;;;;;;5167983;27;20448;-39
2021/04/26 00:24:48;;;;;;;1.20;1.00;;;16.20;91.40;;;;;;5162625;27;20951;-40
2021/04/26 00:27:19;;;;;;;1.13;1.03;;;16.10;91.50;;;;;;5152113;27;20501;-40
2021/04/26 00:29:49;;;;;;;1.23;1.10;;;16.20;91.80;;;;;;5168243;27;20491;-40
2021/04/26 00:32:19;;;;;;;1.70;0.97;;;16.20;92.70;;;;;;5168587;27;20458;-40
2021/04/26 00:34:49;;;;;;;0.97;0.97;;;16.30;92.30;;;;;;5168291;27;20479;-40
2021/04/26 00:37:19;;;;;;;0.70;0.70;;;16.20;91.90;;;;;;5152175;27;20473;-41
2021/04/26 00:39:51;;;;;;;0.80;0.80;;;16.10;93.30;;;;;;5169336;27;20440;-39
2021/04/26 00:42:21;;;;;;;1.13;1.00;;;16.10;94.20;;;;;;5164783;27;20545;-41
2021/04/26 00:44:51;;;;;;;0.87;0.87;;;16.20;95.60;;;;;;5167954;27;20569;-40
2021/04/26 00:47:21;;;;;;;1.40;0.97;;;16.20;93.50;;;;;;5168189;27;20496;-41
2021/04/26 00:49:51;;;;;;;1.30;1.20;;;16.20;93.70;;;;;;5168128;27;20478;-41
2021/04/26 00:52:21;;;;;;;1.00;0.97;;;16.00;93.70;;;;;;5167640;27;20838;-38
2021/04/26 00:54:53;;;;;;;1.00;1.00;;;15.90;93.90;;;;;;5168200;27;20448;-40
2021/04/26 00:57:23;;;;;;;1.00;0.90;;;15.70;94.50;;;;;;5151231;27;20461;-41
2021/04/26 00:59:53;;;;;;;1.33;1.17;;;15.90;94.70;;;;;;5167886;27;20439;-41
2021/04/26 01:02:24;;;;;;;1.40;1.10;;;15.90;94.30;;;;;;5167875;27;20451;-41
2021/04/26 01:04:54;;;;;;;1.30;1.20;;;15.70;94.90;;;;;;5168204;27;20512;-42
2021/04/26 01:07:25;;;;;;;1.00;1.00;;;15.70;94.90;;;;;;5167920;27;20959;-42
2021/04/26 01:09:56;;;;;;;1.37;1.20;;;15.60;95.20;;;;;;5167415;27;20523;-41
2021/04/26 01:12:42;;;;;;;1.20;1.10;;;15.60;96.20;;;;;;5166710;27;20531;-40
2021/04/26 01:15:18;;;;;;;1.00;0.97;;;15.70;95.40;;;;;;5155083;27;20486;-41
2021/04/26 01:17:52;;;;;;;0.77;0.77;;;15.60;95.00;;;;;;5161502;27;20440;-40
2021/04/26 01:21:07;;;;;;;0.87;0.60;;;15.60;95.20;;;;;;5164328;27;20448;-41
2021/04/26 01:24:09;;;;;;;0.77;0.70;;;15.60;93.20;;;;;;5077493;28;21017;-42
2021/04/26 01:26:53;;;;;;;0.60;0.60;;;15.50;92.70;;;;;;5069431;28;20455;-41
2021/04/26 01:29:38;;;;;;;2.60;0.80;;;15.60;93.50;;;;;;5078513;28;20943;-40
2021/04/26 01:32:23;;;;;;;0.50;0.50;;;15.40;94.10;;;;;;5077586;28;20500;-40
2021/04/26 01:34:56;;;;;;;0.40;0.40;;;15.40;94.90;;;;;;5076303;28;20496;-39
2021/04/26 01:37:28;;;;;;;0.73;0.73;;;15.50;94.40;;;;;;5074707;28;20440;-42
2021/04/26 01:39:59;;;;;;;0.40;0.40;;;15.60;94.30;;;;;;5077626;28;20668;-40
2021/04/26 01:42:30;;;;;;;0.60;0.60;;;15.50;94.20;;;;;;5079132;28;20481;-41
2021/04/26 01:45:04;;;;;;;1.20;0.67;;;15.40;93.70;;;;;;5081000;28;20479;-41
2021/04/26 01:47:37;;;;;;;1.90;0.70;;;15.30;94.10;;;;;;5081784;28;20444;-40
2021/04/26 01:50:09;;;;;;;0.50;0.50;;;15.20;94.00;;;;;;5082102;28;20471;-41
2021/04/26 01:52:40;;;;;;;0.80;0.80;;;15.20;94.00;;;;;;5079648;28;20444;-41
2021/04/26 01:55:12;;;;;;;0.70;0.70;;;15.10;94.20;;;;;;5078382;28;20461;-38
2021/04/26 01:57:44;;;;;;;1.30;1.07;;;14.80;93.50;;;;;;5074930;28;20508;-41
2021/04/26 02:00:17;;;;;;;1.20;0.97;;;14.70;94.10;;;;;;5156873;27;20447;-40
2021/04/26 02:02:49;;;;;;;0.80;0.77;;;14.60;95.10;;;;;;5158376;27;20443;-41
2021/04/26 02:05:21;;;;;;;0.60;0.60;;;14.40;95.90;;;;;;5166508;27;20952;-39
2021/04/26 02:07:53;;;;;;;0.80;0.80;;;14.40;96.40;;;;;;5155080;27;20463;-40
2021/04/26 02:10:30;;;;;;;1.17;1.07;;;14.30;96.90;;;;;;5166778;27;20483;-40
2021/04/26 02:13:05;;;;;;;1.00;1.00;;;14.10;97.50;;;;;;5162286;27;20500;-40
2021/04/26 02:15:36;;;;;;;1.20;1.10;;;14.10;99.00;;;;;;5162225;27;20460;-40
2021/04/26 02:18:08;;;;;;;0.97;0.97;;;14.00;99.60;;;;;;5165854;27;20447;-39
2021/04/26 02:20:38;;;;;;;0.90;0.90;;;13.90;99.90;;;;;;5166004;27;20443;-38
2021/04/26 02:23:08;;;;;;;1.20;1.10;;;13.90;99.90;;;;;;5165807;27;20516;-39
2021/04/26 02:25:41;;;;;;;1.00;0.90;;;13.80;99.90;;;;;;5164701;27;20448;-39
2021/04/26 02:28:13;;;;;;;1.57;1.00;;;13.80;99.90;;;;;;5165413;27;20448;-39
2021/04/26 02:30:43;;;;;;;1.50;1.40;;;13.80;99.90;;;;;;5164805;27;20804;-40
2021/04/26 02:33:16;;;;;;;1.90;1.60;;;13.90;99.90;;;;;;5165127;27;20474;-39
2021/04/26 02:35:49;;;;;;;3.37;2.23;;;13.90;99.90;;;;;;5165153;27;20463;-38
2021/04/26 02:38:26;;;;;;;2.00;1.80;;;13.90;99.90;;;;;;5165633;27;20448;-39
2021/04/26 02:41:04;;;;;;;1.30;1.20;;;14.00;99.90;;;;;;5165665;27;20440;-38
2021/04/26 02:43:56;;;;;;;1.00;1.00;;;14.00;99.90;;;;;;5164193;27;20448;-39
2021/04/26 02:46:28;;;;;;;0.90;0.90;;;14.00;99.90;;;;;;5162531;27;20509;-40
2021/04/26 02:49:00;;;;;;;0.80;0.77;;;13.90;99.90;;;;;;5165617;27;20476;-40
2021/04/26 02:51:31;;;;;;;0.90;0.90;;;13.90;99.90;;;;;;5165614;27;20536;-40
2021/04/26 02:54:02;;;;;;;0.70;0.60;;;13.70;99.90;;;;;;5165302;27;20448;-40
2021/04/26 02:56:36;;;;;;;0.90;0.90;;;13.70;99.90;;;;;;5164964;27;20911;-39
2021/04/26 02:59:09;;;;;;;1.37;1.10;;;13.50;99.90;;;;;;5165790;27;20504;-40
2021/04/26 03:01:42;;;;;;;1.43;1.00;;;13.40;99.90;;;;;;5165108;27;20517;-40
2021/04/26 03:04:15;;;;;;;0.80;0.80;;;13.40;99.90;;;;;;5164848;27;20448;-39
2021/04/26 03:06:45;;;;;;;0.70;0.70;;;13.20;99.90;;;;;;5165153;27;20471;-40
2021/04/26 03:09:19;;;;;;;0.93;0.90;;;13.20;99.90;;;;;;5165763;27;20535;-39
2021/04/26 03:11:52;;;;;;;1.37;1.27;;;13.10;99.90;;;;;;5164278;27;20444;-40
2021/04/26 03:14:23;;;;;;;1.30;1.20;;;13.00;99.90;;;;;;5157262;27;20440;-42
2021/04/26 03:16:54;;;;;;;1.40;1.10;;;13.10;99.90;;;;;;5159936;27;20450;-42
2021/04/26 03:19:26;;;;;;;1.50;1.40;;;13.10;99.90;;;;;;5165208;27;20444;-41
2021/04/26 03:21:57;;;;;;;1.13;1.03;;;13.20;99.90;;;;;;5164724;27;20508;-42
2021/04/26 03:24:27;;;;;;;0.87;0.70;;;13.20;99.90;;;;;;5164808;27;20504;-41
2021/04/26 03:27:01;;;;;;;0.77;0.77;;;13.20;99.90;;;;;;5164692;27;20504;-40
2021/04/26 03:29:31;;;;;;;1.77;1.00;;;13.20;99.90;;;;;;5163959;27;20595;-41
2021/04/26 03:32:02;;;;;;;1.20;1.20;;;13.20;99.90;;;;;;5164399;27;20565;-41
2021/04/26 03:34:35;;;;;;;0.87;0.87;;;13.20;99.90;;;;;;5151001;27;20477;-41
2021/04/26 03:37:06;;;;;;;0.80;0.80;;;13.20;99.90;;;;;;5164545;27;20456;-40
2021/04/26 03:39:36;;;;;;;1.40;1.00;;;13.30;99.90;;;;;;5165224;27;20440;-40
2021/04/26 03:42:07;;;;;;;1.30;1.23;;;13.30;99.90;;;;;;5161291;27;20465;-39
2021/04/26 03:44:38;;;;;;;2.23;1.70;;;13.30;99.90;;;;;;5148595;27;20479;-40
2021/04/26 03:47:08;;;;;;;4.10;1.20;;;13.20;99.90;;;;;;5163608;27;20471;-40
2021/04/26 03:49:40;;;;;;;1.83;1.73;;;13.20;99.90;;;;;;5164689;27;20456;-39
2021/04/26 03:52:12;;;;;;;1.97;1.77;;;13.10;99.90;;;;;;5164148;27;20444;-40
2021/04/26 03:54:42;;;;;;;1.43;1.33;;;13.10;99.90;;;;;;5164299;27;20555;-41
2021/04/26 03:57:12;;;;;;;1.67;1.57;;;13.10;99.90;;;;;;5163852;27;20896;-40
2021/04/26 03:59:42;;;;;;;1.83;1.40;;;13.10;99.90;;;;;;5164596;27;20532;-41
2021/04/26 04:02:12;;;;;;;1.07;1.03;;;13.00;99.90;;;;;;5164264;27;20535;-43
2021/04/26 04:04:43;;;;;;;1.97;1.00;;;13.10;99.90;;;;;;5164281;27;20543;-39
2021/04/26 04:07:13;;;;;;;1.00;1.00;;;13.10;99.90;;;;;;5164092;27;20465;-39
2021/04/26 04:09:43;;;;;;;2.00;1.80;;;13.10;99.90;;;;;;5162366;27;20432;-41
2021/04/26 04:12:13;;;;;;;1.20;1.10;;;13.00;99.90;;;;;;5162922;27;20485;-40
2021/04/26 04:14:43;;;;;;;1.23;1.20;;;12.90;99.90;;;;;;5163994;27;20452;-40
2021/04/26 04:17:13;;;;;;;1.67;1.20;;;12.90;99.90;;;;;;5163575;27;20443;-40
2021/04/26 04:19:44;;;;;;;1.70;1.60;;;12.90;99.90;;;;;;5164810;27;20531;-39
2021/04/26 04:22:14;;;;;;;1.83;1.60;;;12.90;99.90;;;;;;5164448;27;20512;-41
2021/04/26 04:24:44;;;;;;;1.43;1.33;;;12.90;99.90;;;;;;5163549;27;20922;-40
2021/04/26 04:27:15;;;;;;;1.57;1.47;;;12.90;99.90;;;;;;5163055;27;20448;-39
2021/04/26 04:29:45;;;;;;;1.83;1.43;;;13.00;99.90;;;;;;5163373;27;20452;-40
2021/04/26 04:32:15;;;;;;;1.80;1.70;;;12.90;99.90;;;;;;5163436;27;20495;-41
2021/04/26 04:34:46;;;;;;;1.40;1.10;;;13.00;99.90;;;;;;5164011;27;20472;-40
2021/04/26 04:37:16;;;;;;;1.50;1.40;;;12.90;99.90;;;;;;5164163;27;20432;-41
2021/04/26 04:39:46;;;;;;;1.47;1.10;;;12.90;99.90;;;;;;5164984;27;20440;-41
2021/04/26 04:42:16;;;;;;;1.10;1.03;;;12.90;99.90;;;;;;5163055;27;20477;-40
2021/04/26 04:44:47;;;;;;;1.30;1.10;;;12.80;99.90;;;;;;5164024;27;20498;-40
2021/04/26 04:47:17;;;;;;;1.50;1.40;;;12.80;99.90;;;;;;5162073;27;20452;-40
2021/04/26 04:49:49;;;;;;;1.37;1.27;;;12.80;99.90;;;;;;5165343;27;20552;-40
2021/04/26 04:52:19;;;;;;;1.37;1.30;;;12.90;99.90;;;;;;5163357;27;20517;-40
2021/04/26 04:54:49;;;;;;;1.30;1.30;;;12.80;99.90;;;;;;5163611;27;20443;-40
2021/04/26 04:57:22;;;;;;;1.70;1.60;;;12.80;99.90;;;;;;5162833;27;20448;-40
2021/04/26 04:59:52;;;;;;;1.53;1.43;;;12.90;99.90;;;;;;5168279;27;20826;-40
2021/04/26 05:02:22;;;;;;;1.80;1.70;;;12.80;99.90;;;;;;5167630;27;20504;-41
2021/04/26 05:04:54;;;;;;;1.70;1.60;;;12.80;99.90;;;;;;5158723;27;20538;-40
2021/04/26 05:07:24;;;;;;;1.77;1.67;;;12.80;99.90;;;;;;5167035;27;20499;-39
2021/04/26 05:09:54;;;;;;;1.40;1.30;;;12.70;99.90;;;;;;5167693;27;20492;-41
2021/04/26 05:12:24;;;;;;;2.00;1.90;;;12.80;99.90;;;;;;5169042;27;20477;-41
2021/04/26 05:14:54;;;;;;;2.00;1.90;;;12.80;99.90;;;;;;5164190;27;20466;-41
2021/04/26 05:17:24;;;;;;;1.60;1.50;;;12.80;99.90;;;;;;5167749;27;20448;-38
2021/04/26 05:19:56;;;;;;;1.23;1.23;;;12.70;99.90;;;;;;5154604;27;20436;-43
2021/04/26 05:22:26;;;;;;;1.50;1.40;;;12.70;99.90;;;;;;5152045;27;20459;-40
2021/04/26 05:24:58;;;;;;;1.67;1.07;;;12.70;99.90;;;;;;5152190;27;20447;-41
2021/04/26 05:27:28;;;;;;;1.40;1.20;;;12.60;99.90;;;;;;5146897;27;20473;-42
2021/04/26 05:29:58;;;;;;;1.60;1.50;;;12.70;99.90;;;;;;5159203;27;20456;-39
2021/04/26 05:32:28;;;;;;;1.10;1.00;;;12.70;99.90;;;;;;5166970;27;20528;-42
2021/04/26 05:34:59;;;;;;;1.20;1.10;;;12.60;99.90;;;;;;5164062;27;20451;-41
2021/04/26 05:37:29;;;;;;;1.03;0.97;;;12.50;99.90;;;;;;5162329;27;20549;-40
2021/04/26 05:40:00;;;;;;;1.43;1.33;;;12.50;99.90;;;;;;5161247;27;20451;-40
2021/04/26 05:42:30;;;;;;;3.20;1.30;;;12.50;99.90;;;;;;5165156;27;20436;-40
2021/04/26 05:45:00;;;;;;;1.00;1.00;;;12.40;99.90;;;;;;5166877;27;20967;-40
2021/04/26 05:47:30;;;;;;;1.33;1.23;;;12.30;99.90;;;;;;5167055;27;20203;-39
2021/04/26 05:50:01;;;;;;;1.00;1.00;;;12.30;99.90;;;;;;5166797;27;20440;-41
2021/04/26 05:52:31;;;;;;;1.57;1.43;;;12.30;99.90;;;;;;5165391;27;20538;-41
2021/04/26 05:55:01;;;;;;;1.40;1.30;;;12.30;99.90;;;;;;5165865;27;20478;-41
2021/04/26 05:57:31;;;;;;;1.30;1.20;;;12.40;99.90;;;;;;5165894;27;20500;-41
2021/04/26 06:00:01;;;;;;;1.97;1.10;;;12.30;99.90;;;;;;5167398;27;20251;-41
2021/04/26 06:02:31;;;;;;;1.50;1.40;;;12.30;99.90;;;;;;5166701;27;21219;-41
2021/04/26 06:05:03;;;;;;;1.33;1.23;;;12.20;99.90;;;;;;5165759;27;20448;-41
2021/04/26 06:07:33;;;;;;;1.83;1.20;;;12.20;99.90;;;;;;5166469;27;20444;-41
2021/04/26 06:10:04;;;;;;;1.73;1.63;;;12.20;99.90;;;;;;5165299;27;20448;-41
2021/04/26 06:12:34;;;;;;;1.20;1.10;;;12.20;99.90;;;;;;5165329;27;20504;-42
2021/04/26 06:15:06;;;;;;;1.63;1.20;;;12.20;99.90;;;;;;5165927;27;20562;-40
2021/04/26 06:17:36;;;;;;;1.50;1.40;;;12.30;99.90;;;;;;5166120;27;20195;-40
2021/04/26 06:20:08;;;;;;;1.20;1.10;;;12.30;99.90;;;;;;5166516;27;20193;-40
2021/04/26 06:22:38;;;;;;;1.30;1.20;;;12.20;99.90;;;;;;5165838;27;20485;-40
2021/04/26 06:25:09;;;;;;;1.17;1.07;;;12.10;99.90;;;;;;5165801;27;20456;-41
2021/04/26 06:27:40;;;;;;;1.20;1.10;;;12.10;99.90;;;;;;5165795;27;20444;-42
2021/04/26 06:30:11;;;;;;;1.57;1.47;;;12.00;99.90;;;;;;5165935;27;20202;-41
2021/04/26 06:32:41;;;;;;;1.27;1.27;;;12.00;99.90;;;;;;5166107;27;20448;-41
2021/04/26 06:35:13;;;;;;;1.53;1.33;;;12.10;99.90;;;;;;5166154;27;20447;-42
2021/04/26 06:37:43;;;;;;;2.10;1.20;;;12.10;99.90;;;;;;5165832;27;20515;-41
2021/04/26 06:40:14;;;;;;;1.63;1.13;;;12.10;99.90;;;;;;5165014;27;20496;-42
2021/04/26 06:42:44;;;;;;;2.40;1.30;;;12.10;99.90;;;;;;5164775;27;20448;-41
2021/04/26 06:45:21;;;;;;;1.00;1.00;;;12.00;99.90;;;;;;5165689;27;20468;-40
2021/04/26 06:47:51;;;;;;;0.97;0.97;;;12.00;99.90;;;;;;5165914;27;20475;-40
2021/04/26 06:50:24;;;;;;;1.60;1.50;;;12.00;99.90;;;;;;5165368;27;20515;-40
2021/04/26 06:52:55;;;;;;;0.90;0.90;;;12.00;99.90;;;;;;5165228;27;20476;-39
2021/04/26 06:55:26;;;;;;;2.40;1.10;;;12.10;99.90;;;;;;5165619;27;20447;-40
2021/04/26 06:57:56;;;;;;;1.20;1.10;;;12.20;99.90;;;;;;5164896;27;20480;-40
2021/04/26 07:00:27;;;;;;;1.03;1.03;;;12.10;99.90;;;;;;5165890;27;20452;-42
2021/04/26 07:02:58;;;;;;;1.00;1.00;;;12.10;99.90;;;;;;5165335;27;20448;-38
2021/04/26 07:05:29;;;;;;;1.00;0.90;;;12.00;99.90;;;;;;5165067;27;20451;-40
2021/04/26 07:08:02;;;;;;;1.40;1.20;;;11.90;99.90;;;;;;5165591;27;20486;-39
2021/04/26 07:10:33;;;;;;;1.10;1.10;;;11.90;99.90;;;;;;5165216;27;20618;-40
2021/04/26 07:13:03;;;;;;;1.70;1.00;;;12.00;99.90;;;;;;5164388;27;20448;-40
2021/04/26 07:15:33;;;;;;;1.27;1.17;;;12.00;99.90;;;;;;5165312;27;20196;-41
2021/04/26 07:18:03;;;;;;;1.52;1.42;;;12.00;99.90;;;;;;5154400;27;20470;-39
2021/04/26 07:20:34;;;;;;;1.60;1.50;;;12.00;99.90;;;;;;5164621;27;20602;-40
2021/04/26 07:23:05;;;;;;;2.17;1.57;;;12.00;99.90;;;;;;5164348;27;20204;-40
2021/04/26 07:25:35;;;;;;;1.40;1.30;;;11.90;99.90;;;;;;5160364;27;20931;-40
2021/04/26 07:28:06;;;;;;;1.60;1.48;;;11.90;99.90;;;;;;5164354;27;20191;-41
2021/04/26 07:30:36;;;;;;;2.65;1.35;;;11.80;99.90;;;;;;5165100;27;20206;-41
2021/04/26 07:33:06;;;;;;;2.50;1.30;;;11.80;99.90;;;;;;5165388;27;20197;-40
2021/04/26 07:35:38;;;;;;;2.00;1.60;;;11.80;99.90;;;;;;5165227;27;20452;-41
2021/04/26 07:38:08;;;;;;;1.60;1.50;;;11.80;99.90;;;;;;5165333;27;20473;-41
2021/04/26 07:40:38;;;;;;;2.03;1.88;;;11.90;99.90;;;;;;5164817;27;20452;-41
2021/04/26 07:43:08;;;;;;;1.47;1.37;;;11.80;99.90;;;;;;5164398;27;20206;-41
2021/04/26 07:45:38;;;;;;;2.37;2.00;;;11.90;99.90;;;;;;5165695;27;20467;-41
2021/04/26 07:48:08;;;;;;;1.60;1.50;;;11.80;99.90;;;;;;5164471;27;20455;-41
2021/04/26 07:50:41;;;;;;;1.98;1.88;;;11.80;99.90;;;;;;5164946;27;20472;-41
2021/04/26 07:53:11;;;;;;;4.10;1.63;;;11.80;99.90;;;;;;5163781;27;20265;-41
2021/04/26 07:55:41;;;;;;;1.65;1.40;;;11.80;99.90;;;;;;5164564;27;20448;-40
2021/04/26 07:58:11;;;;;;;1.33;1.27;;;11.70;99.90;;;;;;5163779;27;20187;-40
2021/04/26 08:00:42;;;;;;;1.40;1.30;;;11.70;99.90;;;;;;5164480;27;20486;-38
2021/04/26 08:03:15;;;;;;;1.13;1.02;;;11.70;99.90;;;;;;5164611;27;20245;-40
2021/04/26 08:05:46;;;;;;;1.40;1.30;;;11.70;99.90;;;;;;5164781;27;20626;-41
2021/04/26 08:08:16;;;;;;;1.45;1.30;;;11.70;99.90;;;;;;5163595;27;20448;-41
2021/04/26 08:10:46;;;;;;;1.73;1.63;;;11.70;99.90;;;;;;5165155;27;20279;-41
2021/04/26 08:13:16;;;;;;;2.15;1.48;;;11.70;99.90;;;;;;5163948;27;20511;-40
2021/04/26 08:15:46;;;;;;;1.50;1.40;;;11.70;99.90;;;;;;5165660;27;20194;-41
2021/04/26 08:18:16;;;;;;;1.67;1.45;;;11.70;99.90;;;;;;5164442;27;20524;-42
2021/04/26 08:20:48;;;;;;;2.13;1.93;;;11.70;99.90;;;;;;5150579;27;20229;-41
2021/04/26 08:23:18;;;;;;;1.52;1.38;;;11.70;99.90;;;;;;5164056;27;20519;-41
2021/04/26 08:26:05;;;;;;;1.50;1.40;;;11.60;99.90;;;;;;5164409;27;20550;-41
2021/04/26 08:28:36;;;;;;;1.53;1.43;;;11.50;99.90;;;;;;5163361;27;20447;-40
2021/04/26 08:31:07;;;;;;;2.42;1.27;;;11.50;99.90;;;;;;5164996;27;21109;-40
2021/04/26 08:33:39;;;;;;;2.20;1.60;;;11.50;99.90;;;;;;5166577;27;20215;-40
2021/04/26 08:36:11;;;;;;;2.20;1.10;;;11.50;99.90;;;;;;5168546;27;20207;-39
2021/04/26 08:38:41;;;;;;;1.40;1.30;;;11.50;99.90;;;;;;5167643;27;20447;-40
2021/04/26 08:41:14;;;;;;;1.20;1.05;;;11.50;99.90;;;;;;5168670;27;20447;-43
2021/04/26 08:43:45;;;;;;;1.40;1.30;;;11.50;99.90;;;;;;5168416;27;20559;-40
2021/04/26 08:46:16;;;;;;;2.65;1.10;;;11.50;99.90;;;;;;5168988;27;20209;-40
2021/04/26 08:48:46;;;;;;;1.30;1.20;;;11.50;99.90;;;;;;5168562;27;20286;-40
2021/04/26 08:51:18;;;;;;;1.45;1.20;;;11.50;99.90;;;;;;5168685;27;20219;-40
2021/04/26 08:53:48;;;;;;;1.38;1.20;;;11.50;99.90;;;;;;5168108;27;20655;-40
2021/04/26 08:56:20;;;;;;;1.30;1.20;;;11.50;99.90;;;;;;5167859;27;20271;-39
2021/04/26 08:58:50;;;;;;;1.45;1.20;;;11.50;99.90;;;;;;5168906;27;20194;-38
2021/04/26 09:01:20;;;;;;;1.90;1.58;;;11.50;99.90;;;;;;5168384;27;20225;-41
2021/04/26 09:03:50;;;;;;;2.00;1.40;;;11.50;99.90;;;;;;5168724;27;20190;-40
2021/04/26 09:06:22;;;;;;;2.88;1.50;;;11.50;99.90;;;;;;5167806;27;20237;-40
2021/04/26 09:08:52;;;;;;;1.80;1.13;;;11.50;99.90;;;;;;5168493;27;20202;-40
2021/04/26 09:11:23;;;;;;;1.20;1.10;;;11.60;99.90;;;;;;5167487;27;20239;-40
2021/04/26 09:13:53;;;;;;;0.80;0.80;;;11.50;99.90;;;;;;5168243;27;20223;-38
2021/04/26 09:16:31;;;;;;;0.95;0.95;;;11.50;99.90;;;;;;5164552;27;20208;-40
2021/04/26 09:19:02;;;;;;;1.13;0.80;;;11.50;99.90;;;;;;5168038;27;20247;-41
2021/04/26 09:21:38;;;;;;;1.13;0.90;;;11.50;99.90;;;;;;5167870;27;20216;-40
2021/04/26 09:24:29;;;;;;;0.70;0.70;;;11.40;99.90;;;;;;5167910;27;20260;-40
2021/04/26 09:27:08;;;;;;;1.00;0.90;;;11.40;99.90;;;;;;5167156;27;20480;-41
2021/04/26 09:29:39;;;;;;;2.10;2.00;;;11.40;99.90;;;;;;5168260;27;20751;-41
2021/04/26 09:32:15;;;;;;;1.77;1.05;;;11.40;99.90;;;;;;5167507;27;21062;-40
2021/04/26 09:34:48;;;;;;;1.27;0.93;;;11.50;99.90;;;;;;5159632;27;20202;-40
2021/04/26 09:37:21;;;;;;;1.80;1.20;;;11.50;99.90;;;;;;5167433;27;20444;-39
2021/04/26 09:40:00;;;;;;;1.52;1.40;;;11.50;99.90;;;;;;5168285;27;20551;-41
2021/04/26 09:42:46;;;;;;;1.45;1.35;;;11.50;99.90;;;;;;5165071;27;20243;-41
2021/04/26 09:45:26;;;;;;;1.67;1.40;;;11.50;99.90;;;;;;5166554;27;20713;-40
2021/04/26 09:48:14;;;;;;;2.00;1.70;;;11.50;99.90;;;;;;5166538;27;20448;-41
2021/04/26 09:50:53;;;;;;;2.30;1.55;;;11.50;99.90;;;;;;5166425;27;20490;-40
2021/04/26 09:53:26;;;;;;;1.70;1.60;;;11.50;99.90;;;;;;5167360;27;20206;-40
2021/04/26 09:55:57;;;;;;;1.55;1.45;;;11.30;99.90;;;;;;5166957;27;20190;-41
2021/04/26 09:58:27;;;;;;;1.88;1.50;;;11.30;99.90;;;;;;5166341;27;20198;-40
2021/04/26 10:00:58;;;;;;;4.95;1.77;;;11.40;99.90;;;;;;5167241;27;20267;-40
2021/04/26 10:03:29;;;;;;;1.77;1.67;;;11.30;99.90;;;;;;5166661;27;20282;-42
2021/04/26 10:06:00;;;;;;;1.60;1.50;;;11.30;99.90;;;;;;5166500;27;20285;-39
2021/04/26 10:08:32;;;;;;;2.72;1.67;;;11.30;99.90;;;;;;5166600;27;20195;-40
2021/04/26 10:11:02;;;;;;;1.92;1.52;;;11.30;99.90;;;;;;5166571;27;20255;-39
2021/04/26 10:13:38;;;;;;;1.40;1.30;;;11.20;99.90;;;;;;5166835;27;20190;-38
2021/04/26 10:16:14;;;;;;;5.20;1.60;;;11.20;99.90;;;;;;5166671;27;20238;-41
2021/04/26 10:18:45;;;;;;;1.45;1.30;;;11.20;99.90;;;;;;5166336;27;20197;-40
2021/04/26 10:21:35;;;;;;;3.10;1.88;;;11.20;99.90;;;;;;5165511;27;20209;-40
2021/04/26 10:24:19;;;;;;;1.75;1.65;;;11.10;99.90;;;;;;5161705;27;20665;-40
2021/04/26 10:26:52;;;;;;;1.52;1.42;;;11.10;99.90;;;;;;5159903;27;20199;-40
2021/04/26 10:29:26;;;;;;;1.50;1.40;;;11.10;99.90;;;;;;5165361;27;20198;-40
2021/04/26 10:32:13;;;;;;;2.92;1.55;;;11.10;99.90;;;;;;5166416;27;20309;-41
2021/04/26 10:35:09;;;;;;;1.33;1.23;;;11.10;99.90;;;;;;5159537;27;20267;-42
2021/04/26 10:37:41;;;;;;;1.02;1.02;;;11.00;99.90;;;;;;5165533;27;20208;-42
2021/04/26 10:40:17;;;;;;;1.75;1.65;;;11.10;99.90;;;;;;5153590;27;20203;-41
2021/04/26 10:42:49;;;;;;;1.55;1.45;;;11.10;99.90;;;;;;5164892;27;20210;-42
2021/04/26 10:45:23;;;;;;;1.70;1.60;;;11.10;99.90;;;;;;5166325;27;20234;-41
2021/04/26 10:48:13;;;;;;;1.55;1.45;;;11.10;99.90;;;;;;5163240;27;20209;-40
2021/04/26 10:50:50;;;;;;;1.50;1.33;;;11.00;99.90;;;;;;5166029;27;20202;-40
2021/04/26 10:53:21;;;;;;;1.30;1.20;;;10.90;99.90;;;;;;5165696;27;20202;-40
2021/04/26 10:56:23;;;;;;;1.60;1.50;;;10.90;99.90;;;;;;5158087;27;20214;-40
2021/04/26 10:59:13;;;;;;;1.45;1.35;;;10.90;99.90;;;;;;5162638;27;20206;-38
2021/04/26 11:01:47;;;;;;;1.90;1.73;;;10.90;99.90;;;;;;5165675;27;20194;-40
2021/04/26 11:04:18;;;;;;;1.63;1.52;;;10.90;99.90;;;;;;5165140;27;20630;-39
2021/04/26 11:07:16;;;;;;;1.50;1.40;;;10.90;99.90;;;;;;5164617;27;20274;-40
2021/04/26 11:09:46;;;;;;;1.50;1.33;;;10.90;99.90;;;;;;5161984;27;20251;-40
2021/04/26 11:12:35;;;;;;;1.60;1.50;;;11.00;99.90;;;;;;5164312;27;20226;-40
2021/04/26 11:15:16;;;;;;;1.40;1.30;;;11.00;99.90;;;;;;5164085;27;20217;-38
2021/04/26 11:17:46;;;;;;;2.20;1.52;;;11.00;99.90;;;;;;5164802;27;20190;-40
2021/04/26 11:20:19;;;;;;;2.33;2.13;;;11.00;99.90;;;;;;5165417;27;20190;-40
2021/04/26 11:22:52;;;;;;;2.65;1.55;;;10.90;99.90;;;;;;5164661;27;20202;-41
2021/04/26 11:25:37;;;;;;;1.90;1.60;;;10.80;99.90;;;;;;5158213;27;20207;-38
2021/04/26 11:28:11;;;;;;;1.77;1.65;;;10.80;99.90;;;;;;5163853;27;20202;-40
2021/04/26 11:30:51;;;;;;;1.60;1.50;;;10.70;99.90;;;;;;5165002;27;20216;-40
2021/04/26 11:33:21;;;;;;;1.67;1.50;;;10.80;99.90;;;;;;5164325;27;20302;-40
2021/04/26 11:36:14;;;;;;;1.90;1.80;;;10.80;99.90;;;;;;5165551;27;20208;-41
2021/04/26 11:38:45;;;;;;;2.22;1.85;;;10.80;99.90;;;;;;5165132;27;20198;-41
2021/04/26 11:41:16;;;;;;;2.85;2.30;;;10.80;99.90;;;;;;5164729;27;20271;-41
2021/04/26 11:43:50;;;;;;;1.80;1.70;;;10.60;99.90;;;;;;5164134;27;20278;-41
2021/04/26 11:46:29;;;;;;;1.85;1.60;;;10.70;99.90;;;;;;5155129;27;20273;-41
2021/04/26 11:49:20;;;;;;;3.22;1.92;;;10.60;99.90;;;;;;5164812;27;20354;-40
2021/04/26 11:51:53;;;;;;;2.30;1.63;;;10.60;99.90;;;;;;5151490;27;20234;-42
2021/04/26 11:54:24;;;;;;;2.13;1.92;;;10.60;99.90;;;;;;5164412;27;20224;-40
2021/04/26 11:57:06;;;;;;;3.15;2.20;;;10.60;99.90;;;;;;5163990;27;20239;-42
2021/04/26 11:59:48;;;;;;;2.40;2.20;;;10.60;99.90;;;;;;5162984;27;20233;-41
2021/04/26 12:02:26;;;;;;;2.10;2.00;;;10.50;99.90;;;;;;5164274;27;20259;-40
2021/04/26 12:04:58;;;;;;;2.90;2.33;;;10.30;99.90;;;;;;5163998;27;20202;-40
2021/04/26 12:07:28;;;;;;;2.03;1.90;;;10.30;99.90;;;;;;5150064;27;20195;-41
2021/04/26 12:09:59;;;;;;;2.55;2.05;;;10.30;99.90;;;;;;5164308;27;20243;-40
2021/04/26 12:12:31;;;;;;;3.15;2.25;;;10.20;99.90;;;;;;5159636;27;20232;-41
2021/04/26 12:15:05;;;;;;;3.20;2.50;;;10.20;99.90;;;;;;5164403;27;20206;-41
2021/04/26 12:17:37;;;;;;;2.60;2.40;;;10.10;99.90;;;;;;5163725;27;20190;-40
2021/04/26 12:20:17;;;;;;;2.55;2.35;;;10.10;99.90;;;;;;5164767;27;20219;-41
2021/04/26 12:22:49;;;;;;;2.35;2.17;;;10.10;99.90;;;;;;5163538;27;21573;-41
2021/04/26 12:25:21;;;;;;;2.55;2.35;;;10.00;99.90;;;;;;5159567;27;20634;-41
2021/04/26 12:28:00;;;;;;;2.95;2.20;;;10.00;99.90;;;;;;5162571;27;20202;-39
2021/04/26 12:30:36;;;;;;;2.42;2.22;;;10.00;99.90;;;;;;5164591;27;20191;-41
2021/04/26 12:33:20;;;;;;;3.15;1.95;;;10.10;99.90;;;;;;5163339;27;20221;-39
2021/04/26 12:35:50;;;;;;;2.60;2.40;;;10.00;99.90;;;;;;5164007;27;20286;-43
2021/04/26 12:38:25;;;;;;;2.40;2.20;;;10.00;99.90;;;;;;5163135;27;20294;-41
2021/04/26 12:40:57;;;;;;;2.97;2.10;;;10.00;99.90;;;;;;5163436;27;20202;-41
2021/04/26 12:43:33;;;;;;;1.95;1.85;;;10.10;99.90;;;;;;5163324;27;20201;-41
2021/04/26 12:46:24;;;;;;;3.08;2.13;;;10.10;99.90;;;;;;5164145;27;20190;-38
2021/04/26 12:48:53;;;;;;;2.10;2.00;;;10.20;99.90;;;;;;5164252;27;20562;-39
2021/04/26 12:51:31;;;;;;;2.90;2.03;;;10.10;99.90;;;;;;5163189;27;20326;-39
2021/04/26 12:54:12;;;;;;;1.90;1.80;;;10.10;99.90;;;;;;5162622;27;20206;-41
2021/04/26 12:56:58;;;;;;;2.05;1.95;;;10.10;99.90;;;;;;5151762;27;20202;-40
2021/04/26 12:59:46;;;;;;;2.05;1.80;;;10.10;99.90;;;;;;5163530;27;20243;-40
2021/04/26 13:02:22;;;;;;;2.97;2.20;;;10.10;99.90;;;;;;5163118;27;20555;-40
2021/04/26 13:04:53;;;;;;;1.92;1.83;;;10.10;99.90;;;;;;5163208;27;20207;-39
2021/04/26 13:07:23;;;;;;;2.38;2.17;;;10.10;99.90;;;;;;5164045;27;20183;-40
2021/04/26 13:10:07;;;;;;;2.25;2.05;;;10.10;99.90;;;;;;5164287;27;20229;-40
2021/04/26 13:12:38;;;;;;;2.78;1.88;;;10.20;99.90;;;;;;5162835;27;20241;-40
2021/04/26 13:15:28;;;;;;;2.03;1.92;;;10.20;99.90;;;;;;5163895;27;20262;-38
2021/04/26 13:18:13;;;;;;;3.50;2.03;;;10.30;99.90;;;;;;5163582;27;20206;-40
2021/04/26 13:20:45;;;;;;;4.38;2.35;;;10.30;99.90;;;;;;5165462;27;20195;-40